CheckWX is a tool to help pilots better visualize weather data.  It is not intended as a substitute for an official pre-flight weather briefing.

08:54:14 UTC

KOAK METAR
Metropolitan Oakland International Airport
Oakland, California, USA
Current

1 hour ago

KOAK 120753Z 00000KT 10SM CLR 14/11 A2997 RMK AO2 SLP148 T01440106 402610128
Observed
Jul-12 @ 07:53 UTC
Visibility
10 SM
Flight Rules
VFR
Cloud Levels
  • Clear skies
Dewpoint
11°C / 52°F
Humidity
82%
Altimeter
29.97" Hg
Pressure
1014.92 hPa
Previous

2 hours ago

KOAK 120653Z 00000KT 10SM CLR 15/10 A2998 RMK AO2 SLP151 T01500100
Observed
Jul-12 @ 06:53 UTC
Visibility
10 SM
Flight Rules
VFR
Cloud Levels
  • Clear skies
Temperature
15°C / 59°F
Dewpoint
10°C / 50°F
Humidity
72%
Altimeter
29.98" Hg
Pressure
1015.22 hPa
Previous

3 hours ago

KOAK 120553Z 31004KT 10SM CLR 16/11 A2999 RMK AO2 SLP154 T01610111 10244 20161 51008
Observed
Jul-12 @ 05:53 UTC
Wind
  • 310° at 4 KTS
Visibility
10 SM
Flight Rules
VFR
Cloud Levels
  • Clear skies
Temperature
16°C / 61°F
Dewpoint
11°C / 52°F
Humidity
72%
Altimeter
29.99" Hg
Pressure
1015.62 hPa